Time;durP1;ratioP1;P1;durP2;ratioP2;P2;SDS_P1;SDS_P2;PMS_P1;PMS_P2;Temp;Humidity;BMP_temperature;BMP_pressure;BME280_temperature;BME280_humidity;BME280_pressure;Samples;Min_cycle;Max_cycle;Signal;HPM_P1;HPM_P2
2022/01/26 00:00:55;;;;;;;;;;;;;;;23.27;30.40;102064.16;4972128;28;792;-77
2022/01/26 00:06:10;;;;;;;;;;;;;;;23.43;30.33;102061.34;4972295;28;1445;-77
2022/01/26 00:08:36;;;;;;;;;;;;;;;23.55;29.61;102065.44;4972327;28;1923;-76
2022/01/26 00:11:03;;;;;;;;;;;;;;;22.36;31.29;102058.63;4971185;28;975;-78
2022/01/26 00:13:29;;;;;;;;;;;;;;;23.56;30.55;102064.41;4972466;28;770;-78
2022/01/26 00:15:57;;;;;;;;;;;;;;;22.73;31.02;102060.03;4970408;28;1439;-78
2022/01/26 00:18:28;;;;;;;;;;;;;;;24.01;29.14;102041.72;4972049;28;1046;-78
2022/01/26 00:20:59;;;;;;;;;;;;;;;23.29;30.25;102054.63;4972351;28;952;-78
2022/01/26 00:26:28;;;;;;;;;;;;;;;23.52;29.66;102049.19;4955498;28;1352;-77
2022/01/26 00:29:09;;;;;;;;;;;;;;;23.70;30.04;102068.38;4972276;28;1911;-77
2022/01/26 00:38:34;;;;;;;;;;;;;;;23.64;29.73;102054.38;4971845;28;1062;-78
2022/01/26 00:39:52;;;;;;;;;;;;;;;23.71;30.01;102058.97;4992295;28;1053;-77
2022/01/26 00:42:18;;;;;;;;;;;;;;;23.47;29.57;102054.41;4995309;28;809;-77
2022/01/26 00:44:48;;;;;;;;;;;;;;;24.04;29.69;102053.31;4993509;28;1063;-77
2022/01/26 00:47:15;;;;;;;;;;;;;;;24.10;28.89;102050.88;4994126;28;1311;-77
2022/01/26 00:49:41;;;;;;;;;;;;;;;23.87;29.05;102049.72;4994948;28;1914;-78
2022/01/26 00:52:12;;;;;;;;;;;;;;;24.20;29.02;102055.13;4995076;28;829;-77
2022/01/26 00:54:38;;;;;;;;;;;;;;;23.64;29.60;102057.13;4994889;28;786;-78
2022/01/26 00:57:06;;;;;;;;;;;;;;;22.60;31.06;102048.63;4995081;28;1369;-78
2022/01/26 00:59:32;;;;;;;;;;;;;;;23.61;30.04;102051.94;4994993;28;1167;-77
2022/01/26 01:01:59;;;;;;;;;;;;;;;23.32;29.87;102045.13;4995202;28;864;-77
2022/01/26 01:04:25;;;;;;;;;;;;;;;23.90;29.29;102045.75;4994759;28;987;-77
2022/01/26 01:06:56;;;;;;;;;;;;;;;23.55;30.11;102057.13;4993542;28;1338;-78
2022/01/26 01:09:24;;;;;;;;;;;;;;;23.65;29.34;102051.41;4994804;28;1907;-77
2022/01/26 01:11:55;;;;;;;;;;;;;;;23.42;29.72;102047.66;4994869;28;770;-77
2022/01/26 01:14:23;;;;;;;;;;;;;;;22.90;30.87;102050.69;4994547;28;999;-78
2022/01/26 01:16:51;;;;;;;;;;;;;;;23.73;29.44;102050.47;4994787;28;1337;-76
2022/01/26 01:19:30;;;;;;;;;;;;;;;24.06;29.02;102056.78;4994838;28;967;-77
2022/01/26 01:22:24;;;;;;;;;;;;;;;24.68;28.24;102060.53;4994626;28;991;-79
2022/01/26 01:25:31;;;;;;;;;;;;;;;23.64;29.61;102060.75;4993462;28;797;-76
2022/01/26 01:28:11;;;;;;;;;;;;;;;23.57;29.75;102057.84;5009257;28;1369;-77
2022/01/26 01:30:44;;;;;;;;;;;;;;;23.49;29.87;102052.31;4994377;28;1989;-77
2022/01/26 01:33:15;;;;;;;;;;;;;;;23.83;29.53;102055.81;4993229;28;798;-76
2022/01/26 01:35:44;;;;;;;;;;;;;;;22.67;30.68;102053.28;4993852;28;1315;-78
2022/01/26 01:38:13;;;;;;;;;;;;;;;23.49;29.69;102041.25;4995604;28;1246;-76
2022/01/26 01:40:40;;;;;;;;;;;;;;;23.75;29.42;102045.63;4974812;28;927;-77
2022/01/26 01:43:07;;;;;;;;;;;;;;;22.61;30.82;102045.69;4973726;28;810;-77
2022/01/26 01:45:34;;;;;;;;;;;;;;;23.03;30.24;102041.81;4973026;28;1141;-77
2022/01/26 01:48:02;;;;;;;;;;;;;;;23.36;30.13;102038.19;4974521;28;994;-78
2022/01/26 01:50:28;;;;;;;;;;;;;;;22.87;30.24;102039.09;4974422;28;1923;-77
2022/01/26 01:53:00;;;;;;;;;;;;;;;23.37;30.28;102039.88;4973720;28;979;-78
2022/01/26 01:55:28;;;;;;;;;;;;;;;22.95;30.62;102032.69;4974326;28;936;-77
2022/01/26 01:57:54;;;;;;;;;;;;;;;23.16;30.14;102034.94;4974160;28;1333;-78
2022/01/26 02:00:20;;;;;;;;;;;;;;;23.64;29.68;102032.19;4971162;28;1516;-77
2022/01/26 02:02:47;;;;;;;;;;;;;;;23.40;29.96;102018.22;4974095;28;895;-77
2022/01/26 02:05:14;;;;;;;;;;;;;;;23.94;28.98;102022.16;4973619;28;979;-78
2022/01/26 02:07:40;;;;;;;;;;;;;;;23.45;29.22;102026.03;4974211;28;1436;-77
2022/01/26 02:10:08;;;;;;;;;;;;;;;24.28;28.68;102023.69;4973969;28;1915;-78
2022/01/26 02:12:37;;;;;;;;;;;;;;;23.77;29.34;102029.69;4974000;28;979;-77
2022/01/26 02:15:09;;;;;;;;;;;;;;;24.03;29.27;102020.22;4973782;28;943;-78
2022/01/26 02:17:57;;;;;;;;;;;;;;;23.27;30.13;102025.38;4988835;28;1329;-77
2022/01/26 02:53:44;;;;;;;;;;;;;;;23.22;30.07;101993.56;5006631;28;1175;-78
2022/01/26 02:56:17;;;;;;;;;;;;;;;22.67;30.18;101999.84;4991650;28;1387;-77
2022/01/26 02:58:58;;;;;;;;;;;;;;;23.40;29.89;101998.00;4994233;28;808;-79
2022/01/26 03:01:46;;;;;;;;;;;;;;;23.20;29.75;101990.09;4992623;28;1023;-77
2022/01/26 03:04:19;;;;;;;;;;;;;;;23.82;28.92;101996.72;4990695;28;705;-77
2022/01/26 03:06:52;;;;;;;;;;;;;;;24.38;28.43;101998.47;4992543;28;1342;-77
2022/01/26 03:09:26;;;;;;;;;;;;;;;23.97;28.25;102002.41;4992095;28;1976;-78
2022/01/26 03:11:53;;;;;;;;;;;;;;;23.66;29.26;101988.50;4991402;28;825;-77
2022/01/26 03:14:29;;;;;;;;;;;;;;;23.94;28.49;101993.59;4992157;28;718;-78
2022/01/26 03:17:00;;;;;;;;;;;;;;;22.69;30.26;101992.25;4990940;28;1340;-77
2022/01/26 03:19:34;;;;;;;;;;;;;;;23.17;29.63;101993.22;4991904;28;856;-77
2022/01/26 03:28:05;;;;;;;;;;;;;;;24.07;28.30;101988.31;4991334;28;960;-77
2022/01/26 03:30:32;;;;;;;;;;;;;;;23.38;29.20;101984.31;4992156;28;1914;-77
2022/01/26 03:33:24;;;;;;;;;;;;;;;23.22;29.48;101974.16;4990943;28;963;-77
2022/01/26 03:35:54;;;;;;;;;;;;;;;23.46;29.47;101982.53;4990667;28;1349;-75
2022/01/26 03:38:24;;;;;;;;;;;;;;;23.79;28.58;101976.84;4977009;28;1187;-77
2022/01/26 03:41:07;;;;;;;;;;;;;;;24.12;28.25;101977.53;4972629;28;1086;-77
2022/01/26 03:43:34;;;;;;;;;;;;;;;23.55;28.82;101978.69;4970943;28;2073;-78
2022/01/26 03:46:00;;;;;;;;;;;;;;;24.24;28.16;101986.28;4971850;28;1483;-77
2022/01/26 03:48:26;;;;;;;;;;;;;;;23.94;28.50;101985.28;4972370;28;1227;-78
2022/01/26 03:50:53;;;;;;;;;;;;;;;23.45;28.66;101978.94;4971365;28;1983;-77
2022/01/26 03:53:19;;;;;;;;;;;;;;;24.12;28.02;101980.31;4971191;28;1489;-77
2022/01/26 03:55:45;;;;;;;;;;;;;;;23.13;29.74;101988.16;4951826;28;1744;-78
2022/01/26 03:58:13;;;;;;;;;;;;;;;22.55;29.58;101979.97;4953192;28;924;-77
2022/01/26 04:00:39;;;;;;;;;;;;;;;23.03;29.21;101964.31;4953242;28;778;-77
2022/01/26 04:03:06;;;;;;;;;;;;;;;23.89;28.52;101974.72;4953155;28;912;-76
2022/01/26 04:05:32;;;;;;;;;;;;;;;24.02;28.18;101976.91;4935705;29;1690;-77
2022/01/26 04:08:04;;;;;;;;;;;;;;;23.31;29.32;101976.91;4953096;28;1324;-77
2022/01/26 04:10:41;;;;;;;;;;;;;;;23.12;29.35;101972.63;4953054;28;1953;-77
2022/01/26 04:13:07;;;;;;;;;;;;;;;23.87;28.33;101979.56;4953126;28;881;-77
2022/01/26 04:15:35;;;;;;;;;;;;;;;24.02;28.29;101976.91;4953674;28;1083;-77
2022/01/26 04:18:02;;;;;;;;;;;;;;;23.83;28.88;101967.97;4955936;29;817;-77
2022/01/26 04:20:34;;;;;;;;;;;;;;;23.69;28.66;101968.75;4956787;28;873;-76
2022/01/26 04:23:09;;;;;;;;;;;;;;;23.63;28.73;101972.25;4956873;28;1088;-77
2022/01/26 04:25:37;;;;;;;;;;;;;;;22.42;30.43;101966.66;4956666;28;1311;-75
2022/01/26 04:28:08;;;;;;;;;;;;;;;23.83;28.57;101969.88;4955841;28;1121;-77
2022/01/26 04:30:35;;;;;;;;;;;;;;;23.34;28.87;101968.22;4956664;29;1891;-77
2022/01/26 04:33:04;;;;;;;;;;;;;;;22.19;30.85;101970.09;4956742;28;817;-77
2022/01/26 04:35:31;;;;;;;;;;;;;;;23.69;28.66;101966.84;4955210;29;1031;-77
2022/01/26 04:38:13;;;;;;;;;;;;;;;23.71;28.19;101953.66;4939610;29;1393;-77
2022/01/26 04:40:46;;;;;;;;;;;;;;;23.43;28.52;101949.66;4957193;28;979;-77
2022/01/26 04:43:17;;;;;;;;;;;;;;;24.08;27.96;101956.75;4956881;28;1028;-76
2022/01/26 04:45:45;;;;;;;;;;;;;;;24.73;27.51;101962.78;4955307;28;1397;-76
2022/01/26 04:48:11;;;;;;;;;;;;;;;24.20;27.84;101960.81;4956339;28;790;-77
2022/01/26 04:50:37;;;;;;;;;;;;;;;23.99;28.00;101955.09;4956603;28;1976;-77
2022/01/26 04:53:04;;;;;;;;;;;;;;;23.80;28.14;101956.38;4955478;28;896;-77
2022/01/26 04:55:30;;;;;;;;;;;;;;;24.20;27.97;101958.03;4955238;28;1585;-77
2022/01/26 04:57:56;;;;;;;;;;;;;;;23.78;28.28;101956.56;4955171;28;1266;-76
2022/01/26 05:00:23;;;;;;;;;;;;;;;23.35;28.59;101958.88;4955176;29;1025;-77
2022/01/26 05:02:50;;;;;;;;;;;;;;;23.35;28.77;101958.88;4955180;29;905;-77
2022/01/26 05:05:17;;;;;;;;;;;;;;;22.44;30.07;101949.91;4955825;28;991;-77
2022/01/26 05:07:43;;;;;;;;;;;;;;;23.05;29.03;101940.09;4956098;28;1377;-76
2022/01/26 05:10:10;;;;;;;;;;;;;;;22.31;30.02;101947.63;4956190;28;1914;-77
2022/01/26 05:12:37;;;;;;;;;;;;;;;23.18;29.25;101936.81;4956393;28;1082;-76
2022/01/26 05:15:04;;;;;;;;;;;;;;;23.04;28.98;101937.50;4954677;29;975;-78
2022/01/26 05:17:30;;;;;;;;;;;;;;;23.36;28.75;101931.00;4995647;23;3727;-80
2022/01/26 05:20:00;;;;;;;;;;;;;;;22.69;29.42;101937.75;5013129;28;1017;-79
2022/01/26 05:22:27;;;;;;;;;;;;;;;22.38;29.87;101941.25;5014592;28;891;-78
2022/01/26 05:24:53;;;;;;;;;;;;;;;22.71;29.38;101941.19;5014313;28;915;-79
2022/01/26 05:27:20;;;;;;;;;;;;;;;22.35;30.17;101929.66;4996254;28;1342;-79
2022/01/26 05:29:46;;;;;;;;;;;;;;;22.33;29.64;101934.50;5012756;28;1898;-79
2022/01/26 05:32:12;;;;;;;;;;;;;;;21.91;30.13;101933.59;5014445;28;843;-78
2022/01/26 05:34:38;;;;;;;;;;;;;;;21.07;31.29;101930.69;5013802;28;994;-79
2022/01/26 05:37:06;;;;;;;;;;;;;;;22.64;29.62;101928.25;5012980;28;1399;-78
2022/01/26 05:39:33;;;;;;;;;;;;;;;22.99;28.99;101926.09;5014298;28;844;-78
2022/01/26 05:42:03;;;;;;;;;;;;;;;23.40;28.76;101921.28;5013613;28;998;-77
2022/01/26 05:44:29;;;;;;;;;;;;;;;21.71;30.20;101928.38;5013599;28;931;-77
2022/01/26 05:46:56;;;;;;;;;;;;;;;22.95;29.02;101919.19;5012399;28;1501;-77
2022/01/26 05:49:22;;;;;;;;;;;;;;;22.58;29.38;101921.50;5012597;28;987;-78
2022/01/26 05:51:50;;;;;;;;;;;;;;;21.84;30.36;101927.03;5013323;28;1918;-75
2022/01/26 05:54:18;;;;;;;;;;;;;;;21.48;30.84;101928.09;5013002;28;979;-79
2022/01/26 05:56:47;;;;;;;;;;;;;;;22.81;29.05;101921.66;5013077;28;1334;-76
2022/01/26 05:59:15;;;;;;;;;;;;;;;21.61;30.30;101918.53;5011846;28;1549;-78
2022/01/26 06:01:41;;;;;;;;;;;;;;;23.47;28.26;101932.50;5012839;28;1327;-77
2022/01/26 06:04:07;;;;;;;;;;;;;;;22.98;28.64;101929.91;5013348;28;856;-77
2022/01/26 06:06:34;;;;;;;;;;;;;;;22.39;29.19;101929.16;5012638;28;1573;-76
2022/01/26 06:09:00;;;;;;;;;;;;;;;22.73;28.94;101922.53;5012823;28;951;-77
2022/01/26 06:11:27;;;;;;;;;;;;;;;21.89;29.97;101922.69;5012300;28;1976;-77
2022/01/26 06:13:55;;;;;;;;;;;;;;;22.63;29.26;101921.84;5012503;28;1738;-76
2022/01/26 06:16:21;;;;;;;;;;;;;;;22.08;29.82;101923.41;5011177;28;1498;-75
2022/01/26 06:18:47;;;;;;;;;;;;;;;22.55;29.07;101922.75;5012736;28;1482;-79
2022/01/26 06:21:14;;;;;;;;;;;;;;;22.16;29.64;101922.56;5011821;28;1576;-76
2022/01/26 06:23:40;;;;;;;;;;;;;;;22.17;29.56;101927.91;5012779;28;975;-76
2022/01/26 06:26:07;;;;;;;;;;;;;;;22.74;28.97;101926.16;5010866;28;1727;-75
2022/01/26 06:28:34;;;;;;;;;;;;;;;22.54;29.26;101923.78;5015947;28;1409;-76
2022/01/26 06:31:04;;;;;;;;;;;;;;;22.37;29.38;101922.94;5014329;28;1918;-77
2022/01/26 06:33:32;;;;;;;;;;;;;;;22.30;29.66;101921.88;5014102;28;1533;-77
2022/01/26 06:35:59;;;;;;;;;;;;;;;22.31;29.14;101917.19;5018975;28;1557;-78
2022/01/26 06:38:27;;;;;;;;;;;;;;;22.43;29.11;101915.81;5016778;28;1459;-77
2022/01/26 06:40:54;;;;;;;;;;;;;;;21.78;29.68;101900.94;5019947;28;1631;-77
2022/01/26 06:43:22;;;;;;;;;;;;;;;22.26;29.57;101905.78;5033745;28;1478;-77
2022/01/26 06:45:54;;;;;;;;;;;;;;;22.59;28.90;101898.34;5021607;28;1541;-76
2022/01/26 06:48:43;;;;;;;;;;;;;;;22.32;29.47;101897.66;5012121;28;1482;-76
2022/01/26 06:51:10;;;;;;;;;;;;;;;22.85;28.62;101900.88;5011711;28;1914;-75
2022/01/26 06:53:37;;;;;;;;;;;;;;;21.77;29.34;101898.31;5014553;28;1443;-76
2022/01/26 06:56:03;;;;;;;;;;;;;;;21.18;31.02;101900.03;5013818;28;1647;-75
2022/01/26 06:58:29;;;;;;;;;;;;;;;21.79;29.99;101916.47;5012714;28;1849;-75
2022/01/26 07:00:57;;;;;;;;;;;;;;;21.78;30.40;101916.63;5011667;28;955;-76
2022/01/26 07:03:24;;;;;;;;;;;;;;;22.30;29.13;101913.56;5011714;28;1163;-75
2022/01/26 07:05:50;;;;;;;;;;;;;;;21.09;30.60;101912.09;5011314;28;785;-75
2022/01/26 07:08:16;;;;;;;;;;;;;;;21.03;30.53;101904.44;5011604;28;1289;-76
2022/01/26 07:10:44;;;;;;;;;;;;;;;21.77;30.10;101921.31;5015616;28;1969;-76
2022/01/26 07:13:11;;;;;;;;;;;;;;;21.25;30.52;101922.34;5027963;28;1369;-77
2022/01/26 07:21:25;;;;;;;;;;;;;;;21.59;30.02;101904.84;5024272;28;1138;-76
2022/01/26 07:23:51;;;;;;;;;;;;;;;21.66;30.09;101922.50;5011817;28;1271;-76
2022/01/26 07:26:18;;;;;;;;;;;;;;;22.05;29.69;101924.63;5001491;28;1467;-76
2022/01/26 07:28:44;;;;;;;;;;;;;;;22.14;29.43;101910.78;5015962;28;1459;-75
2022/01/26 07:31:11;;;;;;;;;;;;;;;21.38;30.55;101902.53;5031088;28;1978;-76
2022/01/26 07:33:39;;;;;;;;;;;;;;;21.79;29.60;101910.09;5031434;28;938;-76
2022/01/26 07:36:06;;;;;;;;;;;;;;;21.24;30.50;101904.91;5031442;28;885;-76
2022/01/26 07:38:32;;;;;;;;;;;;;;;21.52;30.35;101901.88;5030498;28;1334;-75
2022/01/26 07:40:58;;;;;;;;;;;;;;;22.07;29.57;101896.78;5031633;28;1025;-76
2022/01/26 07:43:25;;;;;;;;;;;;;;;22.50;29.21;101894.75;5031753;28;899;-76
2022/01/26 07:45:51;;;;;;;;;;;;;;;22.28;29.34;101906.50;5014106;28;1290;-77
2022/01/26 07:48:17;;;;;;;;;;;;;;;21.43;30.27;101908.41;5025277;28;1526;-76
2022/01/26 07:50:45;;;;;;;;;;;;;;;22.00;29.34;101909.59;5007465;28;1914;-76
2022/01/26 07:53:15;;;;;;;;;;;;;;;22.31;29.50;101917.19;5010060;28;1198;-76
2022/01/26 07:55:41;;;;;;;;;;;;;;;21.86;29.33;101911.13;5017600;28;817;-74
2022/01/26 07:58:09;;;;;;;;;;;;;;;22.65;28.66;101905.06;5012800;28;1246;-77
2022/01/26 08:00:36;;;;;;;;;;;;;;;21.60;29.83;101914.03;5011060;28;844;-76
2022/01/26 08:03:02;;;;;;;;;;;;;;;21.44;30.46;101912.03;5009095;28;1290;-74
2022/01/26 08:05:29;;;;;;;;;;;;;;;22.06;29.54;101922.72;5010348;28;780;-75
2022/01/26 08:07:56;;;;;;;;;;;;;;;21.51;30.45;101922.25;5010998;28;1320;-76
2022/01/26 08:10:22;;;;;;;;;;;;;;;21.77;30.12;101925.94;5010850;28;1049;-75
2022/01/26 08:12:49;;;;;;;;;;;;;;;20.71;31.18;101928.06;5009727;28;1981;-75
2022/01/26 08:15:16;;;;;;;;;;;;;;;21.45;30.38;101933.97;5010607;28;887;-76
2022/01/26 08:17:42;;;;;;;;;;;;;;;22.33;29.41;101938.09;5010739;28;1341;-76
2022/01/26 08:20:10;;;;;;;;;;;;;;;21.72;29.41;101924.56;5026104;28;1141;-75
2022/01/26 08:22:37;;;;;;;;;;;;;;;20.76;31.24;101939.50;5010469;28;1051;-76
2022/01/26 08:25:05;;;;;;;;;;;;;;;21.73;29.94;101933.75;5009071;28;1189;-75
2022/01/26 08:27:39;;;;;;;;;;;;;;;21.98;29.66;101928.22;5010444;28;1420;-75
2022/01/26 08:30:09;;;;;;;;;;;;;;;22.03;29.63;101929.47;5009552;28;888;-75
2022/01/26 08:32:35;;;;;;;;;;;;;;;22.50;28.81;101927.06;5010760;28;1978;-75
2022/01/26 08:35:01;;;;;;;;;;;;;;;21.30;30.29;101910.78;5009171;28;1015;-75
2022/01/26 08:37:28;;;;;;;;;;;;;;;21.40;30.12;101911.50;5009860;28;1345;-74
2022/01/26 08:39:54;;;;;;;;;;;;;;;22.71;28.85;101915.44;5011726;28;1307;-74
2022/01/26 08:42:22;;;;;;;;;;;;;;;22.01;28.88;101908.56;5009892;28;979;-74
2022/01/26 08:44:48;;;;;;;;;;;;;;;21.85;29.56;101909.41;5011218;28;1047;-75
2022/01/26 08:47:14;;;;;;;;;;;;;;;22.72;28.76;101919.94;5010295;28;1425;-75
2022/01/26 08:49:41;;;;;;;;;;;;;;;21.68;29.58;101914.03;5010229;28;1060;-74
2022/01/26 08:52:07;;;;;;;;;;;;;;;21.83;29.88;101914.22;5009078;28;1984;-75
2022/01/26 08:54:33;;;;;;;;;;;;;;;22.67;28.89;101897.47;5009835;28;1014;-76
2022/01/26 08:57:00;;;;;;;;;;;;;;;21.73;29.64;101906.09;5009322;28;1405;-76
2022/01/26 08:59:28;;;;;;;;;;;;;;;22.19;29.23;101916.69;5010264;28;1022;-77
2022/01/26 09:01:54;;;;;;;;;;;;;;;21.55;29.72;101929.22;5011775;28;824;-76
2022/01/26 09:04:20;;;;;;;;;;;;;;;22.29;29.42;101930.31;5013587;28;977;-76
2022/01/26 09:06:55;;;;;;;;;;;;;;;21.85;29.72;101926.84;5014020;28;1350;-77
2022/01/26 09:09:22;;;;;;;;;;;;;;;22.44;29.13;101928.63;5014008;28;765;-76
2022/01/26 09:11:49;;;;;;;;;;;;;;;22.33;28.90;101928.97;5012461;28;1910;-77
2022/01/26 09:14:19;;;;;;;;;;;;;;;21.90;29.75;101916.16;5016634;28;997;-78
2022/01/26 09:16:49;;;;;;;;;;;;;;;22.11;29.29;101906.47;5014056;28;1286;-76
2022/01/26 09:19:26;;;;;;;;;;;;;;;22.76;28.52;101914.94;5014132;28;1065;-76
2022/01/26 09:21:52;;;;;;;;;;;;;;;22.48;28.68;101912.56;5012282;28;866;-78
2022/01/26 09:24:18;;;;;;;;;;;;;;;21.44;29.92;101907.38;5013686;28;986;-77
2022/01/26 09:26:45;;;;;;;;;;;;;;;22.16;29.27;101922.56;5015021;28;1319;-75
2022/01/26 09:29:11;;;;;;;;;;;;;;;21.98;29.83;101922.69;5014337;28;942;-76
2022/01/26 09:31:37;;;;;;;;;;;;;;;21.72;30.00;101918.19;5013954;28;1910;-76
2022/01/26 09:34:05;;;;;;;;;;;;;;;22.08;29.71;101928.94;5014960;28;891;-76
2022/01/26 09:36:31;;;;;;;;;;;;;;;22.31;29.19;101923.56;5017343;28;1361;-77
2022/01/26 09:38:58;;;;;;;;;;;;;;;21.76;30.18;101911.28;5023195;28;1184;-76
2022/01/26 09:41:25;;;;;;;;;;;;;;;21.54;29.69;101908.13;5016984;28;841;-77
2022/01/26 09:43:51;;;;;;;;;;;;;;;22.26;29.16;101909.44;5015903;28;1133;-75
2022/01/26 09:46:17;;;;;;;;;;;;;;;21.78;29.68;101912.00;5008404;28;2342;-76
2022/01/26 09:48:44;;;;;;;;;;;;;;;22.57;29.17;101915.13;5012564;28;1418;-77
2022/01/26 09:51:15;;;;;;;;;;;;;;;23.09;28.23;101910.16;5012378;28;1991;-77
2022/01/26 09:53:42;;;;;;;;;;;;;;;23.27;27.81;101907.16;5013239;28;978;-76
2022/01/26 09:56:08;;;;;;;;;;;;;;;22.50;29.03;101927.06;5014403;28;848;-76
2022/01/26 09:58:35;;;;;;;;;;;;;;;22.81;28.65;101926.31;5012955;28;1388;-76
2022/01/26 10:01:03;;;;;;;;;;;;;;;20.95;30.92;101918.22;5011835;28;1034;-76
2022/01/26 10:03:32;;;;;;;;;;;;;;;22.28;29.45;101923.06;5012859;28;851;-76
2022/01/26 10:05:59;;;;;;;;;;;;;;;22.59;28.54;101925.16;5011625;28;991;-75
2022/01/26 10:17:25;;;;;;;;;;;;;;;22.49;29.02;101928.09;5017559;28;1411;-75
2022/01/26 10:19:55;;;;;;;;;;;;;;;22.30;28.60;101921.00;5015992;28;1569;-76
2022/01/26 10:22:26;;;;;;;;;;;;;;;22.84;28.13;101918.53;5008970;28;1384;-76
2022/01/26 10:25:03;;;;;;;;;;;;;;;22.87;28.54;101920.06;5009420;28;1537;-76
2022/01/26 10:27:35;;;;;;;;;;;;;;;23.88;27.70;101910.06;4998936;28;1340;-77
2022/01/26 10:30:02;;;;;;;;;;;;;;;22.48;28.52;101921.69;5007999;28;1339;-75
2022/01/26 10:32:32;;;;;;;;;;;;;;;22.01;29.41;101900.28;5014966;28;1915;-76
2022/01/26 10:34:58;;;;;;;;;;;;;;;21.99;29.29;101916.16;5013640;28;1482;-77
2022/01/26 10:37:24;;;;;;;;;;;;;;;22.46;28.65;101918.25;5011941;28;1324;-78
2022/01/26 10:39:52;;;;;;;;;;;;;;;23.32;27.73;101920.47;5011596;28;1255;-78
2022/01/26 10:42:22;;;;;;;;;;;;;;;22.07;29.53;101921.69;5012509;28;1010;-79
2022/01/26 10:44:54;;;;;;;;;;;;;;;21.69;29.57;101926.81;5013623;28;1071;-78
2022/01/26 10:47:26;;;;;;;;;;;;;;;21.56;29.67;101921.78;5000690;28;1513;-76
2022/01/26 10:50:08;;;;;;;;;;;;;;;21.96;28.74;101914.59;4991643;28;987;-75
2022/01/26 10:52:37;;;;;;;;;;;;;;;23.05;27.87;101923.47;5011541;28;1914;-75
2022/01/26 10:55:04;;;;;;;;;;;;;;;21.93;28.62;101919.59;5010002;28;1407;-76
2022/01/26 10:57:31;;;;;;;;;;;;;;;22.49;28.35;101909.59;5005703;28;1465;-76
2022/01/26 10:59:58;;;;;;;;;;;;;;;21.41;29.38;101916.00;4992247;28;1022;-76
2022/01/26 11:02:27;;;;;;;;;;;;;;;22.19;28.60;101927.72;5007149;28;1466;-76
2022/01/26 11:04:53;;;;;;;;;;;;;;;20.85;30.45;101933.00;5010814;28;1450;-76
2022/01/26 11:07:20;;;;;;;;;;;;;;;22.39;28.87;101922.75;5010254;28;1323;-76
2022/01/26 11:09:48;;;;;;;;;;;;;;;21.28;30.16;101923.91;5011213;28;1553;-76
2022/01/26 11:12:15;;;;;;;;;;;;;;;20.85;30.73;101927.47;5011316;28;1914;-76
2022/01/26 11:14:44;;;;;;;;;;;;;;;21.03;29.91;101921.00;5011227;28;1525;-76
2022/01/26 11:17:11;;;;;;;;;;;;;;;19.11;32.81;101913.06;5011079;28;1430;-77
2022/01/26 11:19:42;;;;;;;;;;;;;;;20.97;30.14;101914.25;4998042;22;2634;-75
2022/01/26 11:22:08;;;;;;;;;;;;;;;21.03;29.55;101904.44;4972941;28;1511;-75
2022/01/26 11:24:41;;;;;;;;;;;;;;;21.01;29.74;101904.63;4974316;28;1601;-76
2022/01/26 11:27:08;;;;;;;;;;;;;;;21.45;29.18;101911.88;4971387;28;2143;-75
2022/01/26 11:29:37;;;;;;;;;;;;;;;20.47;29.92;101915.84;4972071;28;1396;-76
2022/01/26 11:32:10;;;;;;;;;;;;;;;20.69;29.76;101910.84;4984548;28;1971;-74
2022/01/26 11:34:37;;;;;;;;;;;;;;;21.55;28.59;101917.28;4991713;28;960;-76
2022/01/26 11:37:05;;;;;;;;;;;;;;;20.72;29.20;101916.91;4989224;28;1535;-75
2022/01/26 11:45:09;;;;;;;;;;;;;;;21.33;29.51;101897.50;4970935;28;1039;-76
2022/01/26 11:47:38;;;;;;;;;;;;;;;21.70;29.04;101887.97;4990642;28;1582;-75
2022/01/26 11:50:07;;;;;;;;;;;;;;;21.82;28.87;101884.84;4973985;28;1565;-76
2022/01/26 11:52:35;;;;;;;;;;;;;;;21.36;29.58;101888.88;4985311;28;1887;-77
2022/01/26 11:55:04;;;;;;;;;;;;;;;21.53;29.23;101883.41;4985685;28;1530;-76
2022/01/26 11:57:37;;;;;;;;;;;;;;;21.25;29.27;101878.16;4968557;28;1561;-76
2022/01/26 12:00:07;;;;;;;;;;;;;;;22.53;27.65;101866.72;4984981;28;1552;-75
2022/01/26 12:02:53;;;;;;;;;;;;;;;21.87;28.47;101869.50;4988824;28;1511;-74
2022/01/26 12:05:22;;;;;;;;;;;;;;;21.40;28.91;101859.03;4991098;28;833;-75
2022/01/26 12:07:49;;;;;;;;;;;;;;;20.07;30.70;101857.47;4961069;28;1639;-74
2022/01/26 12:10:18;;;;;;;;;;;;;;;20.73;30.06;101859.81;4970794;28;1326;-76
2022/01/26 12:12:44;;;;;;;;;;;;;;;20.80;29.95;101852.59;4979468;28;1923;-76
2022/01/26 12:15:16;;;;;;;;;;;;;;;21.11;29.59;101854.84;4986250;28;1498;-73
2022/01/26 12:17:58;;;;;;;;;;;;;;;19.00;32.09;101852.72;4990134;28;971;-75
2022/01/26 12:34:33;;;;;;;;;;;;;;;20.07;30.71;101829.06;4987976;28;1923;-75
2022/01/26 12:37:09;;;;;;;;;;;;;;;20.42;30.18;101807.91;4991973;28;1499;-76
2022/01/26 12:42:42;;;;;;;;;;;;;;;20.40;29.88;101798.94;4989542;28;1624;-75
2022/01/26 12:45:08;;;;;;;;;;;;;;;20.66;30.25;101812.69;4988009;28;1468;-75
2022/01/26 12:47:35;;;;;;;;;;;;;;;21.10;29.60;101800.66;4994995;28;792;-76
2022/01/26 12:50:03;;;;;;;;;;;;;;;21.42;29.38;101812.78;4990964;28;1593;-75
2022/01/26 12:52:29;;;;;;;;;;;;;;;21.11;29.51;101816.19;4983789;28;1998;-72
2022/01/26 12:54:56;;;;;;;;;;;;;;;21.38;29.36;101831.59;4974842;28;1041;-74
2022/01/26 12:57:22;;;;;;;;;;;;;;;21.26;29.12;101818.28;4973818;28;1200;-75
2022/01/26 12:59:58;;;;;;;;;;;;;;;21.22;29.38;101823.28;4973754;28;1314;-75
2022/01/26 13:02:25;;;;;;;;;;;;;;;22.22;28.28;101825.94;4973936;28;778;-74
2022/01/26 13:04:58;;;;;;;;;;;;;;;20.78;30.34;101826.22;4975270;28;1062;-76
2022/01/26 13:07:25;;;;;;;;;;;;;;;22.00;28.27;101810.09;4974280;28;845;-74
2022/01/26 13:09:51;;;;;;;;;;;;;;;21.92;28.48;101808.19;4975932;28;1407;-76
2022/01/26 13:12:28;;;;;;;;;;;;;;;21.88;28.40;101804.03;4981852;28;1970;-75
2022/01/26 13:15:03;;;;;;;;;;;;;;;23.16;27.23;101791.25;4973665;28;1221;-77
2022/01/26 13:17:37;;;;;;;;;;;;;;;21.29;28.91;101793.94;4975170;28;967;-74
2022/01/26 13:20:18;;;;;;;;;;;;;;;21.17;28.74;101789.78;4973744;28;1325;-74
2022/01/26 13:23:00;;;;;;;;;;;;;;;20.46;30.07;101795.53;4975160;28;904;-75
2022/01/26 13:25:35;;;;;;;;;;;;;;;20.34;29.50;101785.81;4973561;28;805;-76
2022/01/26 13:28:22;;;;;;;;;;;;;;;21.73;28.46;101795.59;4975321;28;916;-76
2022/01/26 13:31:24;;;;;;;;;;;;;;;21.61;27.92;101785.94;4975080;28;774;-74
2022/01/26 13:34:17;;;;;;;;;;;;;;;21.24;28.54;101777.91;4974725;28;1980;-74
2022/01/26 13:36:58;;;;;;;;;;;;;;;21.65;28.03;101757.75;4974879;28;927;-75
2022/01/26 13:39:43;;;;;;;;;;;;;;;20.92;28.87;101758.50;4974715;28;1445;-75
2022/01/26 13:42:58;;;;;;;;;;;;;;;21.15;28.78;101745.81;4974589;28;1141;-76
2022/01/26 13:48:34;;;;;;;;;;;;;;;20.90;28.79;101734.69;4987160;28;1394;-73
2022/01/26 13:51:08;;;;;;;;;;;;;;;22.89;26.37;101736.16;4985570;28;840;-77
2022/01/26 13:53:46;;;;;;;;;;;;;;;22.03;27.51;101737.84;4978520;28;1919;-76
2022/01/26 13:56:18;;;;;;;;;;;;;;;20.02;29.81;101740.47;4976706;28;1477;-76
2022/01/26 13:58:57;;;;;;;;;;;;;;;20.29;29.48;101747.69;4981076;28;1301;-75
2022/01/26 14:01:23;;;;;;;;;;;;;;;19.29;30.84;101756.22;4992185;28;1027;-78
2022/01/26 14:03:53;;;;;;;;;;;;;;;20.95;28.40;101739.72;4993563;28;781;-76
2022/01/26 14:06:20;;;;;;;;;;;;;;;22.01;27.06;101745.47;4993062;28;1020;-74
2022/01/26 14:08:46;;;;;;;;;;;;;;;20.58;29.30;101744.56;4993274;28;1348;-75
2022/01/26 14:11:12;;;;;;;;;;;;;;;21.71;27.67;101739.63;4993171;28;927;-76
2022/01/26 14:13:40;;;;;;;;;;;;;;;20.32;29.39;101735.47;4991850;28;1910;-76
2022/01/26 14:16:09;;;;;;;;;;;;;;;19.38;30.52;101737.91;4986698;28;1039;-75
2022/01/26 14:21:31;;;;;;;;;;;;;;;19.93;29.76;101734.03;4950125;28;1225;-74
2022/01/26 14:24:11;;;;;;;;;;;;;;;20.10;29.80;101732.25;4954022;28;889;-74
2022/01/26 14:26:39;;;;;;;;;;;;;;;19.69;30.20;101737.47;4954275;28;991;-76
2022/01/26 14:29:15;;;;;;;;;;;;;;;20.32;29.48;101732.72;4954130;28;1431;-74
2022/01/26 14:31:59;;;;;;;;;;;;;;;20.02;29.80;101724.81;4954597;28;920;-78
2022/01/26 14:40:42;;;;;;;;;;;;;;;20.15;29.73;101715.22;4952138;28;1381;-74
2022/01/26 14:52:02;;;;;;;;;;;;;;;20.93;28.71;101696.78;4971424;28;1452;-73